createdAt,value
2022-10-04T00:01:48.644Z,16.45
2022-10-04T00:04:24.690Z,13.35
2022-10-04T00:07:00.633Z,19.35
2022-10-04T00:09:37.629Z,24.92
2022-10-04T00:12:18.938Z,16.42
2022-10-04T00:14:48.026Z,17.95
2022-10-04T00:17:25.686Z,18.40
2022-10-04T00:19:59.189Z,21.52
2022-10-04T00:22:34.085Z,18.50
2022-10-04T00:25:21.490Z,17.50
2022-10-04T00:28:30.215Z,14.50
2022-10-04T00:31:23.036Z,21.85
2022-10-04T00:33:54.397Z,23.75
2022-10-04T00:36:52.541Z,16.73
2022-10-04T00:39:43.910Z,20.77
2022-10-04T00:42:31.603Z,18.40
2022-10-04T00:45:05.524Z,15.00
2022-10-04T00:47:39.049Z,25.27
2022-10-04T00:50:18.231Z,24.55
2022-10-04T00:52:54.756Z,25.65
2022-10-04T00:55:33.223Z,20.48
2022-10-04T00:58:05.591Z,24.05
2022-10-04T01:00:36.664Z,13.33
2022-10-04T01:03:11.919Z,18.05
2022-10-04T01:05:44.128Z,15.32
2022-10-04T01:08:16.958Z,12.13
2022-10-04T01:10:48.936Z,15.48
2022-10-04T01:13:21.260Z,18.50
2022-10-04T01:15:55.381Z,15.40
2022-10-04T01:18:32.753Z,21.58
2022-10-04T01:21:05.777Z,21.15
2022-10-04T01:23:42.819Z,29.55
2022-10-04T01:26:39.835Z,18.05
2022-10-04T01:29:15.102Z,19.95
2022-10-04T01:31:48.205Z,21.55
2022-10-04T01:34:19.680Z,15.45
2022-10-04T01:36:51.486Z,18.85
2022-10-04T01:39:27.407Z,16.38
2022-10-04T01:42:00.261Z,22.65
2022-10-04T01:44:35.722Z,15.73
2022-10-04T01:47:14.341Z,26.90
2022-10-04T01:49:46.420Z,26.40
2022-10-04T01:52:22.539Z,18.25
2022-10-04T01:55:00.552Z,17.42
2022-10-04T01:57:36.285Z,24.20
2022-10-04T02:00:08.643Z,26.27
2022-10-04T02:02:42.648Z,21.05
2022-10-04T02:05:14.614Z,24.90
2022-10-04T02:07:46.134Z,15.43
2022-10-04T02:10:22.257Z,20.27
2022-10-04T02:12:54.874Z,24.38
2022-10-04T02:15:26.841Z,23.52
2022-10-04T02:17:58.025Z,27.73
2022-10-04T02:20:28.450Z,20.35
2022-10-04T02:22:59.545Z,22.40
2022-10-04T02:25:30.344Z,19.60
2022-10-04T02:27:59.722Z,23.65
2022-10-04T02:30:28.916Z,20.25
2022-10-04T02:33:00.470Z,18.98
2022-10-04T02:35:35.873Z,25.42
2022-10-04T02:43:16.226Z,27.58
2022-10-04T02:45:50.535Z,17.50
2022-10-04T02:48:29.850Z,21.30
2022-10-04T02:51:07.731Z,24.92
2022-10-04T02:53:47.500Z,17.08
2022-10-04T02:56:23.350Z,25.10
2022-10-04T02:58:53.122Z,34.75
2022-10-04T03:01:27.940Z,22.95
2022-10-04T03:03:58.259Z,17.85
2022-10-04T03:06:33.004Z,23.45
2022-10-04T03:09:07.232Z,22.20
2022-10-04T03:11:40.532Z,20.98
2022-10-04T03:14:17.249Z,21.48
2022-10-04T03:16:49.015Z,22.30
2022-10-04T03:19:21.972Z,22.15
2022-10-04T03:21:54.227Z,20.13
2022-10-04T03:24:26.496Z,26.35
2022-10-04T03:26:59.886Z,27.35
2022-10-04T03:29:31.412Z,25.88
2022-10-04T03:32:05.426Z,23.73
2022-10-04T03:34:37.958Z,22.85
2022-10-04T03:37:15.298Z,22.58
2022-10-04T03:39:47.440Z,27.25
2022-10-04T03:42:23.022Z,23.83
2022-10-04T03:44:55.033Z,24.38
2022-10-04T03:47:27.635Z,21.95
2022-10-04T03:50:00.098Z,28.85
2022-10-04T03:52:33.737Z,25.30
2022-10-04T03:55:09.709Z,35.35
2022-10-04T03:57:39.982Z,20.85
2022-10-04T04:00:09.758Z,24.77
2022-10-04T04:02:46.334Z,32.10
2022-10-04T04:05:21.426Z,28.77
2022-10-04T04:08:01.919Z,21.05
2022-10-04T04:10:34.234Z,32.20
2022-10-04T04:13:12.557Z,29.20
2022-10-04T04:15:45.653Z,31.67
2022-10-04T04:18:23.764Z,31.77
2022-10-04T04:23:27.316Z,28.70
2022-10-04T04:26:01.302Z,28.00
2022-10-04T04:28:39.692Z,29.27
2022-10-04T04:31:16.576Z,29.02
2022-10-04T04:33:49.530Z,32.97
2022-10-04T04:36:19.136Z,31.85
2022-10-04T04:39:05.372Z,24.50
2022-10-04T04:41:36.767Z,37.63
2022-10-04T04:44:17.654Z,26.63
2022-10-04T04:46:46.842Z,31.05
2022-10-04T04:49:19.115Z,30.45
2022-10-04T04:51:51.908Z,27.67
2022-10-04T04:54:24.576Z,26.02
2022-10-04T04:59:28.937Z,30.17
2022-10-04T05:01:57.998Z,39.53
2022-10-04T05:04:27.386Z,29.17
2022-10-04T05:07:04.724Z,33.55
2022-10-04T05:09:35.123Z,22.38
2022-10-04T05:12:09.614Z,28.08
2022-10-04T05:14:46.249Z,30.92
2022-10-04T05:17:21.751Z,29.17
2022-10-04T05:19:51.604Z,24.15
2022-10-04T05:22:24.107Z,31.00
2022-10-04T05:24:56.409Z,27.92
2022-10-04T05:27:31.183Z,24.50
2022-10-04T05:30:07.612Z,28.58
2022-10-04T05:32:50.102Z,25.45
2022-10-04T05:35:21.294Z,24.95
2022-10-04T05:38:01.239Z,27.75
2022-10-04T05:40:42.415Z,29.80
2022-10-04T05:43:30.235Z,31.40
2022-10-04T05:46:24.380Z,47.95
2022-10-04T05:48:59.587Z,30.23
2022-10-04T05:51:31.396Z,34.92
2022-10-04T05:54:03.033Z,29.60
2022-10-04T05:56:54.982Z,31.63
2022-10-04T05:59:46.637Z,29.40
2022-10-04T06:02:32.013Z,26.52
2022-10-04T06:05:12.420Z,25.85
2022-10-04T06:07:47.710Z,31.90
2022-10-04T06:10:40.857Z,32.83
2022-10-04T06:13:18.231Z,29.27
2022-10-04T06:16:03.423Z,27.48
2022-10-04T06:19:09.819Z,27.08
2022-10-04T06:21:56.881Z,27.85
2022-10-04T06:24:29.026Z,29.67
2022-10-04T06:27:04.492Z,37.05
2022-10-04T06:29:39.384Z,29.70
2022-10-04T06:32:41.628Z,26.13
2022-10-04T06:35:36.734Z,31.17
2022-10-04T06:38:34.591Z,32.22
2022-10-04T06:41:19.861Z,30.55
2022-10-04T06:44:19.784Z,28.83
2022-10-04T06:46:51.666Z,27.30
2022-10-04T06:49:35.995Z,30.13
2022-10-04T06:52:22.786Z,34.33
2022-10-04T06:55:13.752Z,34.45
2022-10-04T06:58:12.260Z,31.92
2022-10-04T07:00:46.172Z,38.53
2022-10-04T07:03:19.761Z,36.55
2022-10-04T07:05:53.786Z,29.00
2022-10-04T07:08:32.653Z,30.95
2022-10-04T07:11:11.528Z,31.13
2022-10-04T07:13:48.180Z,27.85
2022-10-04T07:16:30.343Z,39.65
2022-10-04T07:19:09.764Z,33.08
2022-10-04T07:21:50.476Z,39.20
2022-10-04T07:24:26.039Z,29.73
2022-10-04T07:26:56.619Z,30.65
2022-10-04T07:29:28.791Z,24.33
2022-10-04T07:32:08.537Z,28.25
2022-10-04T07:34:41.290Z,29.02
2022-10-04T07:37:12.976Z,29.33
2022-10-04T07:39:51.167Z,28.35
2022-10-04T07:42:27.521Z,28.63
2022-10-04T07:45:05.108Z,29.40
2022-10-04T07:47:36.221Z,33.97
2022-10-04T07:50:21.578Z,35.53
2022-10-04T07:52:57.611Z,26.67
2022-10-04T07:55:42.908Z,33.45
2022-10-04T07:58:31.519Z,27.75
2022-10-04T08:01:09.718Z,27.73
2022-10-04T08:04:03.935Z,28.17
2022-10-04T08:06:37.615Z,23.73
2022-10-04T08:09:29.564Z,34.05
2022-10-04T08:12:14.329Z,25.73
2022-10-04T08:14:54.488Z,35.22
2022-10-04T08:17:37.840Z,25.13
2022-10-04T08:20:27.606Z,21.58
2022-10-04T08:23:18.761Z,25.70
2022-10-04T08:26:02.008Z,17.60
2022-10-04T08:28:57.630Z,23.60
2022-10-04T08:31:38.967Z,24.85
2022-10-04T08:34:26.991Z,20.42
2022-10-04T08:37:09.723Z,27.02
2022-10-04T08:39:55.322Z,37.90
2022-10-04T08:42:54.346Z,22.38
2022-10-04T08:45:54.164Z,25.00
2022-10-04T08:49:19.965Z,23.90
2022-10-04T08:52:19.735Z,16.75
2022-10-04T08:55:31.380Z,24.63
2022-10-04T08:58:15.948Z,21.60
2022-10-04T09:01:03.263Z,18.05
2022-10-04T09:04:10.167Z,18.48
2022-10-04T09:06:47.098Z,14.23
2022-10-04T09:09:52.880Z,19.63
2022-10-04T09:12:51.512Z,28.85
2022-10-04T09:15:27.820Z,21.13
2022-10-04T09:18:04.344Z,22.15
2022-10-04T09:20:49.405Z,17.33
2022-10-04T09:23:58.744Z,16.27
2022-10-04T09:26:38.895Z,19.15
2022-10-04T09:29:35.663Z,16.73
2022-10-04T09:32:26.677Z,14.20
2022-10-04T09:35:32.172Z,14.93
2022-10-04T09:38:24.542Z,19.08
2022-10-04T09:41:15.762Z,13.48
2022-10-04T09:44:17.555Z,12.38
2022-10-04T09:47:06.250Z,15.43
2022-10-04T09:50:05.936Z,13.35
2022-10-04T09:52:47.942Z,14.45
2022-10-04T09:55:43.797Z,14.13
2022-10-04T09:58:33.800Z,15.77
2022-10-04T10:01:12.863Z,15.32
2022-10-04T10:04:06.809Z,15.93
2022-10-04T10:07:17.446Z,12.77
2022-10-04T10:10:18.185Z,9.93
2022-10-04T10:13:32.133Z,12.95
2022-10-04T10:16:13.931Z,10.25
2022-10-04T10:18:59.375Z,12.05
2022-10-04T10:21:49.719Z,14.77
2022-10-04T10:25:00.325Z,15.07
2022-10-04T10:27:49.902Z,11.40
2022-10-04T10:30:25.795Z,10.95
2022-10-04T10:33:22.964Z,13.30
2022-10-04T10:36:25.311Z,12.00
2022-10-04T10:39:19.271Z,12.32
2022-10-04T10:42:06.441Z,21.90
2022-10-04T10:44:52.363Z,9.35
2022-10-04T10:47:38.628Z,14.60
2022-10-04T10:50:25.861Z,11.10
2022-10-04T10:53:21.838Z,12.23
2022-10-04T10:56:37.167Z,10.30
2022-10-04T10:59:50.534Z,13.18
2022-10-04T11:02:52.895Z,10.13
2022-10-04T11:05:58.280Z,15.38
2022-10-04T11:08:55.562Z,11.60
2022-10-04T11:12:05.812Z,11.63
2022-10-04T11:15:06.197Z,10.68
2022-10-04T11:18:09.204Z,11.20
2022-10-04T11:21:00.705Z,11.55
2022-10-04T11:24:20.838Z,17.50
2022-10-04T11:27:11.190Z,16.30
2022-10-04T11:30:15.768Z,16.40
2022-10-04T11:33:29.362Z,12.95
2022-10-04T11:36:16.175Z,14.93
2022-10-04T11:39:05.694Z,12.65
2022-10-04T11:41:50.302Z,8.90
2022-10-04T11:44:53.202Z,10.88
2022-10-04T11:47:36.217Z,9.68
2022-10-04T11:50:24.832Z,8.55
2022-10-04T11:53:47.727Z,10.82
2022-10-04T11:56:37.053Z,8.50
2022-10-04T11:59:41.526Z,10.05
2022-10-04T12:02:36.124Z,12.75
2022-10-04T12:05:50.934Z,10.88
2022-10-04T12:08:31.515Z,9.05
2022-10-04T12:11:25.614Z,12.75
2022-10-04T12:14:09.520Z,7.53
2022-10-04T12:17:10.222Z,12.35
2022-10-04T12:20:02.054Z,8.63
2022-10-04T12:22:47.048Z,9.18
2022-10-04T12:25:48.962Z,8.82
2022-10-04T12:28:41.905Z,9.88
2022-10-04T12:31:23.951Z,7.07
2022-10-04T12:34:00.728Z,9.48
2022-10-04T12:36:51.657Z,10.88
2022-10-04T12:39:32.749Z,12.27
2022-10-04T12:42:14.361Z,11.73
2022-10-04T12:45:00.310Z,9.35
2022-10-04T12:47:51.444Z,12.43
2022-10-04T12:50:34.491Z,12.75
2022-10-04T12:53:19.709Z,14.25
2022-10-04T12:56:02.989Z,11.70
2022-10-04T12:58:44.465Z,14.57
2022-10-04T13:01:23.002Z,8.48
2022-10-04T13:04:12.253Z,8.32
2022-10-04T13:06:55.729Z,8.70
2022-10-04T13:12:20.966Z,8.18
2022-10-04T13:15:05.208Z,8.20
2022-10-04T13:17:44.890Z,8.48
2022-10-04T13:20:32.079Z,7.72
2022-10-04T13:23:08.385Z,7.95
2022-10-04T13:26:05.126Z,7.20
2022-10-04T13:28:47.006Z,10.65
2022-10-04T13:31:23.903Z,10.55
2022-10-04T13:34:01.294Z,6.70
2022-10-04T13:36:45.459Z,9.48
2022-10-04T13:39:44.418Z,12.48
2022-10-04T13:42:42.738Z,14.98
2022-10-04T13:45:38.045Z,9.45
2022-10-04T13:48:31.383Z,10.57
2022-10-04T13:51:18.217Z,13.73
2022-10-04T13:54:13.686Z,6.68
2022-10-04T13:56:55.049Z,8.38
2022-10-04T13:59:35.313Z,8.43
2022-10-04T14:02:45.113Z,8.18
2022-10-04T14:05:55.023Z,7.93
2022-10-04T14:08:52.110Z,10.60
2022-10-04T14:12:05.778Z,8.00
2022-10-04T14:17:54.282Z,9.65
2022-10-04T14:20:49.434Z,9.45
2022-10-04T14:23:57.402Z,13.68
2022-10-04T14:26:50.951Z,11.95
2022-10-04T14:29:47.691Z,10.45
2022-10-04T14:32:55.666Z,7.50
2022-10-04T14:35:28.697Z,12.63
2022-10-04T14:38:26.478Z,14.33
2022-10-04T14:41:45.149Z,7.78
2022-10-04T14:44:54.178Z,10.13
2022-10-04T14:47:42.938Z,9.25
2022-10-04T14:50:28.712Z,7.38
2022-10-04T14:53:12.984Z,12.93
2022-10-04T14:56:06.451Z,9.23
2022-10-04T14:58:42.251Z,10.65
2022-10-04T15:01:22.743Z,8.32
2022-10-04T15:04:08.910Z,11.75
2022-10-04T15:06:43.334Z,7.35
2022-10-04T15:09:37.709Z,5.90
2022-10-04T15:12:45.804Z,10.30
2022-10-04T15:15:32.612Z,10.73
2022-10-04T15:18:13.023Z,6.30
2022-10-04T15:20:55.225Z,8.80
2022-10-04T15:23:34.995Z,11.02
2022-10-04T15:26:09.961Z,9.50
2022-10-04T15:29:04.091Z,9.52
2022-10-04T15:31:42.517Z,7.88
2022-10-04T15:34:27.394Z,10.20
2022-10-04T15:37:22.180Z,10.60
2022-10-04T15:40:14.235Z,7.80
2022-10-04T15:43:15.095Z,7.82
2022-10-04T15:46:12.863Z,7.47
2022-10-04T15:49:00.097Z,6.30
2022-10-04T15:51:46.446Z,8.02
2022-10-04T15:54:35.080Z,15.25
2022-10-04T15:57:21.873Z,8.07
2022-10-04T15:59:55.555Z,10.82
2022-10-04T16:02:47.277Z,9.85
2022-10-04T16:05:27.035Z,10.98
2022-10-04T16:08:11.069Z,8.65
2022-10-04T16:11:23.948Z,5.25
2022-10-04T16:14:21.416Z,9.77
2022-10-04T16:17:09.763Z,52.10
2022-10-04T16:20:06.202Z,10.98
2022-10-04T16:22:38.389Z,10.65
2022-10-04T16:25:39.026Z,10.87
2022-10-04T16:28:19.983Z,9.23
2022-10-04T16:31:20.305Z,10.85
2022-10-04T16:33:58.694Z,9.20
2022-10-04T16:36:44.153Z,11.70
2022-10-04T16:39:31.446Z,10.23
2022-10-04T16:42:03.511Z,10.15
2022-10-04T16:44:39.975Z,9.52
2022-10-04T16:47:24.308Z,8.90
2022-10-04T16:49:57.165Z,7.28
2022-10-04T16:52:51.180Z,11.88
2022-10-04T16:55:51.863Z,11.85
2022-10-04T16:58:43.397Z,10.32
2022-10-04T17:01:55.102Z,13.20
2022-10-04T17:04:55.744Z,13.32
2022-10-04T17:07:52.385Z,11.45
2022-10-04T17:10:35.289Z,8.52
2022-10-04T17:13:23.460Z,8.23
2022-10-04T17:16:06.166Z,11.57
2022-10-04T17:18:45.390Z,7.95
2022-10-04T17:21:38.934Z,10.32
2022-10-04T17:24:20.142Z,48.97
2022-10-04T17:27:05.888Z,36.42
2022-10-04T17:29:51.642Z,11.18
2022-10-04T17:32:28.214Z,9.77
2022-10-04T17:35:24.024Z,10.85
2022-10-04T17:38:02.755Z,9.30
2022-10-04T17:40:45.202Z,10.68
2022-10-04T17:43:21.857Z,7.75
2022-10-04T17:46:06.292Z,10.50
2022-10-04T17:49:03.283Z,6.72
2022-10-04T17:52:02.220Z,10.23
2022-10-04T17:55:01.559Z,8.98
2022-10-04T17:57:40.517Z,7.53
2022-10-04T18:00:14.512Z,10.70
2022-10-04T18:02:56.888Z,8.35
2022-10-04T18:05:31.002Z,7.60
2022-10-04T18:08:03.758Z,8.35
2022-10-04T18:10:39.893Z,10.52
2022-10-04T18:13:26.417Z,11.20
2022-10-04T18:16:02.486Z,9.20
2022-10-04T18:18:39.162Z,13.38
2022-10-04T18:21:27.313Z,10.60
2022-10-04T18:23:59.104Z,11.88
2022-10-04T18:26:31.512Z,8.88
2022-10-04T18:29:03.839Z,10.65
2022-10-04T18:31:37.849Z,9.05
2022-10-04T18:34:19.443Z,10.38
2022-10-04T18:36:54.848Z,8.57
2022-10-04T18:39:25.073Z,10.43
2022-10-04T18:42:08.612Z,6.60
2022-10-04T18:44:48.662Z,8.90
2022-10-04T18:47:21.451Z,10.88
2022-10-04T18:49:55.207Z,7.55
2022-10-04T18:52:40.575Z,13.07
2022-10-04T18:55:25.330Z,10.00
2022-10-04T18:58:25.859Z,9.10
2022-10-04T19:01:25.844Z,7.65
2022-10-04T19:04:01.146Z,10.52
2022-10-04T19:06:34.957Z,8.85
2022-10-04T19:09:14.012Z,8.50
2022-10-04T19:11:49.102Z,11.80
2022-10-04T19:14:30.088Z,10.20
2022-10-04T19:17:02.637Z,10.73
2022-10-04T19:19:52.424Z,9.20
2022-10-04T19:22:30.821Z,5.95
2022-10-04T19:25:13.889Z,10.98
2022-10-04T19:27:50.088Z,9.38
2022-10-04T19:30:22.712Z,9.13
2022-10-04T19:33:04.698Z,6.95
2022-10-04T19:35:49.021Z,10.57
2022-10-04T19:38:41.666Z,59.08
2022-10-04T19:41:19.412Z,45.53
2022-10-04T19:43:56.645Z,14.93
2022-10-04T19:46:39.892Z,13.82
2022-10-04T19:49:21.735Z,5.35
2022-10-04T19:51:53.394Z,11.13
2022-10-04T19:54:29.397Z,14.32
2022-10-04T19:57:01.579Z,12.93
2022-10-04T19:59:40.521Z,9.50
2022-10-04T20:02:11.769Z,13.05
2022-10-04T20:04:43.622Z,7.80
2022-10-04T20:07:23.699Z,8.87
2022-10-04T20:09:55.590Z,8.57
2022-10-04T20:12:36.495Z,6.50
2022-10-04T20:15:26.638Z,7.47
2022-10-04T20:17:58.161Z,4.72
2022-10-04T20:21:00.401Z,8.25
2022-10-04T20:23:50.188Z,5.47
2022-10-04T20:30:05.892Z,5.70
2022-10-04T20:32:58.331Z,7.30
2022-10-04T20:36:14.199Z,8.68
2022-10-04T20:39:06.298Z,4.65
2022-10-04T20:42:22.529Z,4.45
2022-10-04T20:44:57.337Z,7.68
2022-10-04T20:47:48.451Z,5.45
2022-10-04T20:50:23.625Z,3.55
2022-10-04T20:52:57.396Z,5.53
2022-10-04T20:55:31.730Z,4.07
2022-10-04T20:58:03.484Z,7.72
2022-10-04T21:00:36.039Z,2.42
2022-10-04T21:03:20.918Z,5.72
2022-10-04T21:06:02.878Z,4.90
2022-10-04T21:08:32.250Z,2.72
2022-10-04T21:11:06.638Z,3.42
2022-10-04T21:13:43.736Z,5.55
2022-10-04T21:16:12.819Z,3.63
2022-10-04T21:18:42.892Z,3.47
2022-10-04T21:21:14.764Z,4.25
2022-10-04T21:23:43.916Z,3.83
2022-10-04T21:26:22.908Z,5.07
2022-10-04T21:28:54.420Z,6.90
2022-10-04T21:31:26.621Z,3.03
2022-10-04T21:33:56.690Z,2.45
2022-10-04T21:36:25.572Z,2.55
2022-10-04T21:38:54.724Z,2.75
2022-10-04T21:41:23.357Z,5.72
2022-10-04T21:43:52.043Z,2.55
2022-10-04T21:46:23.857Z,3.38
2022-10-04T21:48:56.492Z,8.60
2022-10-04T21:51:27.931Z,5.95
2022-10-04T21:53:56.613Z,3.03
2022-10-04T21:56:25.667Z,4.07
2022-10-04T21:58:54.393Z,4.75
2022-10-04T22:01:23.011Z,4.07
2022-10-04T22:03:51.754Z,6.13
2022-10-04T22:06:22.268Z,4.00
2022-10-04T22:08:51.222Z,5.25
2022-10-04T22:11:22.544Z,5.57
2022-10-04T22:13:51.212Z,4.45
2022-10-04T22:16:20.158Z,4.38
2022-10-04T22:18:48.923Z,3.42
2022-10-04T22:21:18.049Z,3.08
2022-10-04T22:23:48.735Z,2.50
2022-10-04T22:26:20.143Z,3.30
2022-10-04T22:28:50.769Z,4.75
2022-10-04T22:31:25.710Z,3.35
2022-10-04T22:33:55.128Z,4.63
2022-10-04T22:36:25.890Z,8.10
2022-10-04T22:38:59.748Z,5.03
2022-10-04T22:41:31.206Z,7.72
2022-10-04T22:44:08.241Z,6.28
2022-10-04T22:46:38.985Z,5.07
2022-10-04T22:49:11.814Z,5.25
2022-10-04T22:51:45.336Z,8.85
2022-10-04T22:54:19.529Z,7.65
2022-10-04T22:56:49.547Z,6.85
2022-10-04T22:59:22.009Z,7.47
2022-10-04T23:01:50.800Z,5.38
2022-10-04T23:04:23.169Z,4.63
2022-10-04T23:06:52.989Z,5.72
2022-10-04T23:09:22.979Z,6.30
2022-10-04T23:11:51.725Z,4.60
2022-10-04T23:14:20.413Z,4.45
2022-10-04T23:16:49.357Z,3.50
2022-10-04T23:19:20.335Z,6.30
2022-10-04T23:21:50.877Z,5.50
2022-10-04T23:24:21.598Z,6.65
2022-10-04T23:26:56.395Z,4.45
2022-10-04T23:29:28.704Z,6.03
2022-10-04T23:32:09.936Z,3.85
2022-10-04T23:34:40.423Z,7.05
2022-10-04T23:37:16.428Z,4.25
2022-10-04T23:39:45.959Z,6.97
2022-10-04T23:42:21.089Z,3.47
2022-10-04T23:44:51.374Z,6.57
2022-10-04T23:47:21.192Z,3.58
2022-10-04T23:49:54.538Z,3.67
2022-10-04T23:52:26.508Z,5.53
2022-10-04T23:54:56.131Z,4.77
2022-10-04T23:57:28.218Z,3.38
